createdAt,value
2022-11-01T05:22:24.741Z,999.90
2022-11-01T05:24:52.967Z,999.90
2022-11-01T05:27:20.670Z,999.90
2022-11-01T05:29:48.329Z,999.90
2022-11-01T05:32:15.944Z,999.90
2022-11-01T05:34:43.585Z,999.90
2022-11-01T05:37:11.503Z,999.90
2022-11-01T05:39:40.527Z,999.90
2022-11-01T05:42:08.312Z,999.90
2022-11-01T05:44:35.950Z,999.90
2022-11-01T05:47:04.690Z,999.90
2022-11-01T05:49:32.362Z,999.90
2022-11-01T05:52:00.044Z,999.90
2022-11-01T05:54:27.703Z,999.90
2022-11-01T05:56:56.688Z,999.90
2022-11-01T05:59:24.323Z,999.90
2022-11-01T06:01:52.061Z,999.90
2022-11-01T06:04:19.766Z,999.90
2022-11-01T06:06:47.408Z,999.90
2022-11-01T06:09:15.051Z,999.90
2022-11-01T06:11:42.671Z,999.90
2022-11-01T06:14:13.009Z,999.90
2022-11-01T06:16:40.692Z,999.90
2022-11-01T06:19:09.538Z,999.90
2022-11-01T06:21:38.177Z,999.90
2022-11-01T06:24:06.351Z,999.90
2022-11-01T06:26:33.997Z,999.90
2022-11-01T06:29:02.000Z,999.90
2022-11-01T06:31:31.045Z,999.90
2022-11-01T06:33:58.723Z,999.90
2022-11-01T06:36:26.431Z,999.90
2022-11-01T06:38:54.074Z,999.90
2022-11-01T06:41:21.747Z,999.90
2022-11-01T06:43:49.594Z,999.90
2022-11-01T06:46:17.250Z,999.90
2022-11-01T06:48:48.394Z,999.90
2022-11-01T06:51:16.027Z,999.90
2022-11-01T06:53:43.771Z,999.90
2022-11-01T06:56:11.399Z,999.90
2022-11-01T06:58:39.056Z,999.90
2022-11-01T07:01:06.829Z,999.90
2022-11-01T07:03:34.593Z,999.90
2022-11-01T07:06:03.871Z,999.90
2022-11-01T07:08:31.507Z,999.90
2022-11-01T07:10:59.426Z,999.90
2022-11-01T07:13:28.911Z,999.90
2022-11-01T07:15:56.605Z,999.90
2022-11-01T07:18:24.242Z,999.90
2022-11-01T07:20:51.904Z,999.90
2022-11-01T07:23:21.008Z,999.90
2022-11-01T07:25:52.130Z,999.90
2022-11-01T07:28:19.775Z,999.90
2022-11-01T07:30:48.635Z,999.90
2022-11-01T07:33:16.290Z,999.90
2022-11-01T07:35:43.924Z,999.90
2022-11-01T07:38:13.354Z,999.90
2022-11-01T07:40:42.865Z,999.90
2022-11-01T07:43:10.767Z,999.90
2022-11-01T07:45:38.649Z,999.90
2022-11-01T07:48:10.034Z,999.90
2022-11-01T07:50:38.655Z,999.90
2022-11-01T07:53:07.952Z,999.90
2022-11-01T07:55:35.616Z,999.90
2022-11-01T07:58:05.331Z,999.90
2022-11-01T08:03:08.669Z,999.90
2022-11-01T08:05:36.727Z,999.90
2022-11-01T08:08:05.754Z,999.90
2022-11-01T08:10:34.400Z,999.90
2022-11-01T08:13:04.856Z,999.90
2022-11-01T08:15:32.810Z,999.90
2022-11-01T08:18:01.236Z,999.90
2022-11-01T08:20:29.958Z,999.90
2022-11-01T08:22:57.863Z,999.90
2022-11-01T08:25:26.229Z,999.90
2022-11-01T08:27:53.854Z,999.90
2022-11-01T08:30:22.916Z,999.90
2022-11-01T08:32:50.532Z,999.90
2022-11-01T08:35:18.313Z,999.90
2022-11-01T08:37:50.157Z,999.90
2022-11-01T08:40:17.987Z,999.90
2022-11-01T08:42:45.771Z,999.90
2022-11-01T08:45:13.832Z,999.90
2022-11-01T08:47:43.139Z,999.90
2022-11-01T08:50:12.808Z,999.90
2022-11-01T08:52:40.487Z,999.90
2022-11-01T08:55:09.397Z,999.90
2022-11-01T08:57:37.104Z,999.90
2022-11-01T09:00:06.939Z,999.90
2022-11-01T09:02:34.778Z,999.90
2022-11-01T09:05:06.135Z,999.90
2022-11-01T09:07:34.696Z,999.90
2022-11-01T09:10:02.377Z,999.90
2022-11-01T09:12:30.115Z,999.90
2022-11-01T09:14:57.803Z,999.90
2022-11-01T09:17:25.479Z,999.90
2022-11-01T09:19:53.151Z,999.90
2022-11-01T09:22:22.284Z,999.90
2022-11-01T09:24:49.945Z,999.90
2022-11-01T09:27:17.598Z,999.90
2022-11-01T09:29:47.940Z,999.90
2022-11-01T09:32:18.706Z,999.90
2022-11-01T09:34:48.914Z,999.90
2022-11-01T09:37:16.885Z,999.90
2022-11-01T09:39:45.881Z,999.90
2022-11-01T09:42:20.612Z,999.90
2022-11-01T09:44:49.477Z,999.90
2022-11-01T09:47:20.210Z,999.90
2022-11-01T09:49:49.925Z,999.90
2022-11-01T09:52:20.824Z,999.90
2022-11-01T09:54:49.911Z,999.90
2022-11-01T09:57:21.913Z,999.90
2022-11-01T09:59:59.076Z,999.90
2022-11-01T10:02:43.602Z,999.90
2022-11-01T10:05:22.488Z,999.90
2022-11-01T10:07:59.819Z,999.90
2022-11-01T10:10:36.798Z,999.90
2022-11-01T10:13:16.315Z,999.90
2022-11-01T10:15:53.406Z,999.90
2022-11-01T10:18:28.124Z,999.90
2022-11-01T10:20:57.536Z,999.90
2022-11-01T10:23:34.452Z,999.90
2022-11-01T10:26:04.293Z,999.90
2022-11-01T10:28:39.451Z,999.90
2022-11-01T10:31:12.978Z,999.90
2022-11-01T10:33:42.792Z,999.90
2022-11-01T10:36:14.662Z,999.90
2022-11-01T10:39:37.270Z,999.90
2022-11-01T10:41:40.979Z,999.90
2022-11-01T10:44:12.080Z,999.90
2022-11-01T10:46:41.245Z,999.90
2022-11-01T10:49:16.859Z,999.90
2022-11-01T10:51:44.931Z,999.90
2022-11-01T10:54:17.116Z,999.90
2022-11-01T10:56:48.579Z,999.90
2022-11-01T10:59:18.285Z,999.90
2022-11-01T11:01:47.118Z,999.90
2022-11-01T11:04:16.312Z,999.90
2022-11-01T11:06:44.450Z,999.90
2022-11-01T11:09:20.336Z,999.90
2022-11-01T11:11:51.255Z,999.90
2022-11-01T11:14:20.133Z,999.90
2022-11-01T11:16:50.267Z,999.90
2022-11-01T11:19:24.646Z,999.90
2022-11-01T11:21:54.083Z,999.90
2022-11-01T11:24:23.583Z,999.90
2022-11-01T11:26:54.613Z,999.90
2022-11-01T11:29:34.468Z,999.90
2022-11-01T11:32:02.767Z,999.90
2022-11-01T11:34:32.083Z,999.90
2022-11-01T11:37:00.108Z,999.90
2022-11-01T11:39:29.023Z,999.90
2022-11-01T11:42:11.666Z,999.90
2022-11-01T11:44:41.856Z,999.90
2022-11-01T11:47:20.038Z,999.90
2022-11-01T11:49:48.525Z,999.90
2022-11-01T11:52:18.008Z,999.90
2022-11-01T11:54:45.923Z,999.90
2022-11-01T11:57:18.932Z,999.90
2022-11-01T11:59:47.627Z,999.90
2022-11-01T12:02:20.894Z,999.90
2022-11-01T12:04:53.272Z,999.90
2022-11-01T12:07:25.984Z,999.90
2022-11-01T12:09:53.725Z,999.90
2022-11-01T12:12:25.212Z,999.90
2022-11-01T12:14:53.265Z,999.90
2022-11-01T12:17:25.800Z,999.90
2022-11-01T12:19:59.426Z,999.90
2022-11-01T12:22:28.933Z,999.90
2022-11-01T12:24:58.812Z,999.90
2022-11-01T12:27:30.090Z,999.90
2022-11-01T12:30:02.720Z,999.90
2022-11-01T12:32:33.782Z,55.30
2022-11-01T12:35:05.794Z,65.17
2022-11-01T12:37:48.542Z,103.20
2022-11-01T12:40:19.799Z,87.37
2022-11-01T12:42:51.603Z,81.17
2022-11-01T12:45:24.931Z,146.57
2022-11-01T12:47:56.578Z,122.63
2022-11-01T12:50:26.076Z,74.63
2022-11-01T12:52:57.440Z,303.87
2022-11-01T12:55:31.127Z,584.77
2022-11-01T12:58:00.221Z,871.57
2022-11-01T13:00:32.515Z,93.83
2022-11-01T13:03:10.447Z,342.30
2022-11-01T13:05:46.898Z,52.87
2022-11-01T13:08:21.104Z,155.83
2022-11-01T13:10:49.365Z,65.70
2022-11-01T13:13:22.583Z,51.77
2022-11-01T13:15:57.685Z,163.57
2022-11-01T13:18:33.889Z,67.10
2022-11-01T13:21:07.234Z,71.33
2022-11-01T13:23:37.857Z,143.60
2022-11-01T13:26:08.794Z,227.50
2022-11-01T13:28:50.891Z,821.67
2022-11-01T13:31:25.515Z,521.63
2022-11-01T13:33:58.633Z,702.10
2022-11-01T13:36:31.287Z,803.03
2022-11-01T13:39:01.994Z,979.43
2022-11-01T13:41:34.921Z,982.13
2022-11-01T13:44:07.241Z,999.90
2022-11-01T13:46:46.286Z,167.23
2022-11-01T13:49:41.240Z,530.90
2022-11-01T13:52:10.769Z,576.03
2022-11-01T13:54:40.726Z,544.33
2022-11-01T13:57:13.249Z,80.83
2022-11-01T13:59:54.095Z,77.00
2022-11-01T14:02:53.836Z,90.77
2022-11-01T14:05:21.655Z,67.40
2022-11-01T14:08:35.162Z,54.60
2022-11-01T14:11:02.819Z,36.13
2022-11-01T14:13:36.342Z,154.33
2022-11-01T14:16:21.295Z,990.40
2022-11-01T14:19:21.976Z,493.33
2022-11-01T14:21:53.341Z,795.57
2022-11-01T14:24:35.136Z,697.83
2022-11-01T14:27:08.931Z,464.10
2022-11-01T14:29:37.314Z,53.67
2022-11-01T14:32:07.055Z,56.43
2022-11-01T14:34:36.376Z,63.20
2022-11-01T14:37:11.020Z,64.03
2022-11-01T14:39:41.950Z,60.20
2022-11-01T14:42:12.338Z,38.07
2022-11-01T14:44:45.522Z,37.90
2022-11-01T14:47:23.940Z,47.43
2022-11-01T14:49:56.204Z,38.43
2022-11-01T14:52:31.057Z,35.00
2022-11-01T14:55:04.827Z,72.57
2022-11-01T14:57:34.822Z,34.97
2022-11-01T15:00:22.972Z,41.80
2022-11-01T15:02:52.230Z,41.93
2022-11-01T15:05:20.077Z,56.17
2022-11-01T15:07:52.045Z,73.63
2022-11-01T15:10:19.865Z,58.93
2022-11-01T15:12:49.151Z,73.57
2022-11-01T15:15:18.928Z,38.03
2022-11-01T15:17:53.124Z,39.53
2022-11-01T15:20:21.172Z,490.00
2022-11-01T15:22:50.066Z,481.30
2022-11-01T15:25:22.440Z,258.53
2022-11-01T15:27:50.837Z,997.47
2022-11-01T15:30:23.381Z,856.80
2022-11-01T15:33:15.926Z,965.23
2022-11-01T15:35:43.803Z,999.90
2022-11-01T15:38:20.829Z,940.77
2022-11-01T15:40:50.244Z,993.60
2022-11-01T15:43:19.901Z,725.97
2022-11-01T15:45:48.978Z,999.90
2022-11-01T15:48:21.631Z,999.90
2022-11-01T15:50:52.259Z,999.90
2022-11-01T15:53:23.131Z,787.77
2022-11-01T15:55:53.268Z,662.70
2022-11-01T15:58:24.028Z,999.90
2022-11-01T16:00:53.291Z,446.47
2022-11-01T16:03:25.257Z,423.47
2022-11-01T16:05:56.973Z,772.90
2022-11-01T16:08:29.672Z,557.40
2022-11-01T16:10:57.364Z,158.60
2022-11-01T16:13:25.098Z,604.67
2022-11-01T16:16:03.781Z,999.90
2022-11-01T16:18:36.387Z,999.90
2022-11-01T16:21:06.195Z,999.90
2022-11-01T16:23:33.912Z,999.90
2022-11-01T16:26:02.677Z,963.27
2022-11-01T16:28:32.376Z,999.90
2022-11-01T16:31:00.130Z,998.97
2022-11-01T16:33:35.501Z,769.80
2022-11-01T16:36:06.208Z,999.90
2022-11-01T16:38:40.844Z,971.03
2022-11-01T16:41:17.982Z,986.30
2022-11-01T16:43:45.997Z,844.93
2022-11-01T16:46:13.762Z,976.80
2022-11-01T16:48:53.158Z,848.20
2022-11-01T16:51:24.911Z,999.90
2022-11-01T16:53:52.713Z,999.90
2022-11-01T16:56:36.231Z,999.90
2022-11-01T16:59:07.694Z,638.97
2022-11-01T17:01:36.590Z,999.90
2022-11-01T17:04:05.275Z,999.90
2022-11-01T17:06:39.114Z,999.90
2022-11-01T17:09:11.774Z,648.50
2022-11-01T17:11:39.588Z,999.90
2022-11-01T17:14:07.311Z,999.90
2022-11-01T17:16:35.197Z,999.90
2022-11-01T17:19:03.132Z,456.53
2022-11-01T17:21:32.451Z,999.90
2022-11-01T17:24:01.468Z,999.90
2022-11-01T17:26:29.184Z,999.90
2022-11-01T17:28:56.815Z,999.90
2022-11-01T17:31:25.027Z,999.90
2022-11-01T17:33:52.663Z,999.90
2022-11-01T17:36:20.344Z,999.90
2022-11-01T17:38:50.260Z,845.47
2022-11-01T17:41:21.030Z,999.90
2022-11-01T17:43:48.722Z,999.90
2022-11-01T17:46:18.525Z,999.90
2022-11-01T17:48:46.159Z,986.27
2022-11-01T17:51:13.871Z,350.47
2022-11-01T17:53:42.150Z,661.10
2022-11-01T17:56:09.835Z,620.60
2022-11-01T17:58:38.844Z,477.53
2022-11-01T18:01:08.829Z,999.90
2022-11-01T18:03:37.117Z,999.90
2022-11-01T18:06:05.358Z,786.13
2022-11-01T18:08:34.832Z,717.47
2022-11-01T18:11:07.284Z,395.33
2022-11-01T18:13:44.257Z,816.13
2022-11-01T18:16:21.089Z,868.50
2022-11-01T18:19:10.035Z,666.13
2022-11-01T18:21:45.734Z,998.83
2022-11-01T18:24:22.207Z,999.90
2022-11-01T18:26:51.240Z,998.00
2022-11-01T18:29:23.505Z,999.90
2022-11-01T18:31:58.422Z,999.90
2022-11-01T18:34:32.008Z,999.90
2022-11-01T18:37:02.824Z,999.90
2022-11-01T18:39:36.327Z,999.90
2022-11-01T18:42:07.155Z,999.90
2022-11-01T18:44:36.224Z,999.90
2022-11-01T18:47:07.534Z,999.90
2022-11-01T18:49:35.230Z,999.90
2022-11-01T18:52:02.915Z,999.90
2022-11-01T18:54:31.606Z,999.90
2022-11-01T18:57:07.703Z,999.90
2022-11-01T18:59:39.160Z,999.90
2022-11-01T19:02:14.468Z,999.90
2022-11-01T19:04:43.641Z,999.90
2022-11-01T19:07:13.496Z,999.90
2022-11-01T19:09:43.875Z,999.90
2022-11-01T19:12:16.604Z,999.90
2022-11-01T19:14:46.302Z,999.90
2022-11-01T19:17:20.841Z,999.90
2022-11-01T19:19:48.491Z,999.90
2022-11-01T19:22:37.950Z,999.90
2022-11-01T19:25:17.613Z,999.90
2022-11-01T19:27:45.454Z,997.33
2022-11-01T19:30:24.536Z,986.27
2022-11-01T19:32:54.094Z,999.90
2022-11-01T19:35:22.574Z,999.90
2022-11-01T19:37:51.792Z,999.90
2022-11-01T19:40:27.826Z,999.90
2022-11-01T19:42:56.008Z,999.87
2022-11-01T19:45:32.641Z,852.97
2022-11-01T19:48:02.231Z,740.30
2022-11-01T19:50:39.368Z,999.90
2022-11-01T19:53:16.897Z,999.90
2022-11-01T19:55:49.971Z,930.57
2022-11-01T19:58:39.055Z,683.70
2022-11-01T20:01:33.360Z,166.43
2022-11-01T20:04:03.439Z,88.00
2022-11-01T20:06:35.261Z,88.53
2022-11-01T20:09:05.291Z,83.67
2022-11-01T20:11:33.544Z,86.23
2022-11-01T20:14:01.662Z,81.10
2022-11-01T20:16:30.878Z,84.57
2022-11-01T20:18:58.570Z,83.13
2022-11-01T20:21:26.801Z,152.60
2022-11-01T20:23:54.526Z,88.53
2022-11-01T20:26:22.203Z,89.10
2022-11-01T20:28:50.095Z,98.43
2022-11-01T20:31:18.555Z,87.33
2022-11-01T20:33:47.643Z,84.47
2022-11-01T20:36:15.313Z,96.87
2022-11-01T20:38:43.076Z,115.27
2022-11-01T20:41:10.731Z,177.73
2022-11-01T20:43:38.460Z,85.33
2022-11-01T20:46:06.461Z,88.87
2022-11-01T20:48:34.173Z,89.27
2022-11-01T20:51:04.452Z,73.53
2022-11-01T20:53:32.137Z,78.53
2022-11-01T20:55:59.897Z,110.77
2022-11-01T20:58:27.921Z,74.57
2022-11-01T21:00:56.303Z,114.63
2022-11-01T21:03:28.561Z,96.67
2022-11-01T21:05:56.192Z,124.67
2022-11-01T21:08:26.104Z,172.37
2022-11-01T21:10:56.245Z,679.10
2022-11-01T21:13:26.324Z,724.17
2022-11-01T21:15:55.049Z,999.90
2022-11-01T21:18:34.634Z,578.80
2022-11-01T21:21:46.418Z,716.77
2022-11-01T21:24:33.987Z,745.47
2022-11-01T21:27:17.715Z,590.77
2022-11-01T21:29:47.265Z,726.37
2022-11-01T21:32:27.051Z,392.57
2022-11-01T21:34:55.089Z,807.90
2022-11-01T21:37:23.404Z,999.90
2022-11-01T21:40:01.572Z,587.03
2022-11-01T21:42:33.474Z,985.43
2022-11-01T21:45:01.164Z,999.90
2022-11-01T21:47:31.198Z,942.77
2022-11-01T21:49:58.880Z,611.77
2022-11-01T21:52:26.651Z,89.87
2022-11-01T21:54:55.656Z,292.87
2022-11-01T21:57:23.319Z,647.60
2022-11-01T21:59:51.866Z,179.53
2022-11-01T22:02:19.547Z,382.20
2022-11-01T22:04:47.311Z,411.13
2022-11-01T22:07:14.968Z,999.90
2022-11-01T22:09:42.631Z,999.90
2022-11-01T22:12:11.650Z,999.90
2022-11-01T22:14:39.441Z,588.80
2022-11-01T22:17:07.101Z,999.90
2022-11-01T22:19:34.805Z,999.90
2022-11-01T22:22:02.563Z,999.90
2022-11-01T22:24:30.939Z,998.90
2022-11-01T22:26:59.002Z,979.87
2022-11-01T22:29:28.019Z,908.80
2022-11-01T22:31:55.652Z,978.90
2022-11-01T22:34:23.374Z,632.53
2022-11-01T22:36:51.129Z,838.90
2022-11-01T22:39:21.284Z,659.03
2022-11-01T22:41:49.332Z,999.90
2022-11-01T22:44:20.244Z,967.33
2022-11-01T22:46:55.205Z,171.30
2022-11-01T22:49:28.119Z,98.67
2022-11-01T22:51:57.481Z,823.83
2022-11-01T22:57:16.952Z,391.40
2022-11-01T22:59:47.072Z,213.47
2022-11-01T23:02:33.602Z,985.97
2022-11-01T23:05:21.466Z,622.87
2022-11-01T23:07:50.416Z,875.17
2022-11-01T23:10:33.409Z,525.07
2022-11-01T23:13:25.075Z,631.13
2022-11-01T23:15:52.863Z,999.90
2022-11-01T23:18:22.602Z,999.90
2022-11-01T23:20:56.109Z,999.90
2022-11-01T23:23:24.204Z,999.90
2022-11-01T23:25:52.590Z,931.30
2022-11-01T23:28:21.992Z,874.60
2022-11-01T23:30:49.943Z,999.90
2022-11-01T23:33:19.251Z,809.03
2022-11-01T23:35:52.007Z,885.23
2022-11-01T23:38:21.446Z,864.63
2022-11-01T23:40:50.852Z,889.20
2022-11-01T23:43:25.411Z,999.90
2022-11-01T23:45:53.248Z,640.83
2022-11-01T23:48:21.468Z,881.13
2022-11-01T23:50:49.790Z,932.90
2022-11-01T23:53:18.353Z,748.77
2022-11-01T23:55:48.767Z,999.90
2022-11-01T23:58:19.426Z,999.90
